Airfield :
LOGIN :

Register | Disclaimer

   EN    FR    IT 

 










Legend :    VFR   Marginal VFR   IFR   Intensive IFR   Very Intensive IFR
Visi :
Ceiling :
>= 8 km
>= 3000ft
5 to 8 km
1000 to 3000 ft
1500m to 5 km
500 to 1000 ft
800 to 1500m
200 to 500 ft
< 800m
< 200 ft
Symbols :   Thunderstorms  Fog  Heavy snow  Heavy precipitations  Wind > 20 kt
SIGMETs :     Misc.  Thunderstorms  Icing  Turbulence  Mountain Waves  Volcanic Ashes






- Airport Elevation : 147 ft
- IATA code : DUS


EDDL - Düsseldorf Int.

CURRENT METAR :
  • 281020Z AUTO 15009KT 9999 -RA OVC015 07/06 Q1011 BECMG BKN012

EXPIRED METARs :
  • 280950Z AUTO 16009KT 9999 -RA OVC016 07/05 Q1011 BECMG BKN012
  • 280920Z AUTO 16009KT 9999 -RADZ OVC017 07/05 Q1011 BECMG BKN012
  • 280850Z AUTO 16009KT 9999 FEW001 OVC018 07/05 Q1010 NOSIG
  • 280820Z AUTO 16010KT 9999 OVC020 07/05 Q1010 NOSIG
  • 280750Z AUTO 16010KT 9999 OVC022 07/05 Q1010 NOSIG
  • 280720Z AUTO 16011KT 9999 BKN027 OVC044 07/05 Q1010 NOSIG

TAF AMD TAF EDDL
Valid from the 28 at 08:00 until the 29 at 12:00 UTC


280848Z 2808/2912 16011KT 9999 OVC025
BECMG 2810/2812 BKN012
TEMPO 2812/2912 18005KT BKN009
PROB30
TEMPO 2813/2902 4000 BR BKN004
BECMG 2815/2818 VRB03KT
PROB40
TEMPO 2902/2912 4000 BR BKN004
PROB30
TEMPO 2906/2910 0500 FG OVC000



MET'MAP, your aeronautical weather chart ! - Copyright ORBIFLY December 2007 - Disclaimer

ORBIFLY MET'MAP TEAM :

Programming & Development : Alexandra Zaïnal
Original concept : Baudouin d'Aumeries
Technical & hardware support : Manuel Goepfert
Assistance : Marc-Olivier Méhu




SOURCES & CREDITS :

   NOAA